sensor_id;sensor_type;location;lat;lon;timestamp;pressure;altitude;pressure_sealevel;temperature;humidity
23899;BME280;20544;50.018;20.010;2023-05-09T00:02:37;99866.02;;;5.14;100.00
23899;BME280;20544;50.018;20.010;2023-05-09T00:05:54;99872.95;;;5.15;100.00
23899;BME280;20544;50.018;20.010;2023-05-09T00:09:10;99866.88;;;5.15;100.00
23899;BME280;20544;50.018;20.010;2023-05-09T00:12:27;99873.30;;;5.11;100.00
23899;BME280;20544;50.018;20.010;2023-05-09T00:15:43;99866.75;;;5.05;100.00
23899;BME280;20544;50.018;20.010;2023-05-09T00:19:02;99859.21;;;5.00;100.00
23899;BME280;20544;50.018;20.010;2023-05-09T00:22:18;99861.97;;;4.99;100.00
23899;BME280;20544;50.018;20.010;2023-05-09T00:25:35;99857.91;;;4.95;100.00
23899;BME280;20544;50.018;20.010;2023-05-09T00:28:51;99851.67;;;4.96;100.00
23899;BME280;20544;50.018;20.010;2023-05-09T00:32:08;99854.42;;;4.94;100.00
23899;BME280;20544;50.018;20.010;2023-05-09T00:35:25;99855.50;;;4.92;100.00
23899;BME280;20544;50.018;20.010;2023-05-09T00:38:43;99852.27;;;4.88;100.00
23899;BME280;20544;50.018;20.010;2023-05-09T00:41:59;99849.90;;;4.85;100.00
23899;BME280;20544;50.018;20.010;2023-05-09T00:45:16;99846.41;;;4.84;100.00
23899;BME280;20544;50.018;20.010;2023-05-09T00:48:32;99842.70;;;4.87;100.00
23899;BME280;20544;50.018;20.010;2023-05-09T00:51:50;99838.53;;;4.84;100.00
23899;BME280;20544;50.018;20.010;2023-05-09T00:55:09;99841.16;;;4.84;100.00
23899;BME280;20544;50.018;20.010;2023-05-09T00:58:25;99839.48;;;4.83;100.00
23899;BME280;20544;50.018;20.010;2023-05-09T01:01:43;99839.98;;;4.77;100.00
23899;BME280;20544;50.018;20.010;2023-05-09T01:05:00;99839.73;;;4.80;100.00
23899;BME280;20544;50.018;20.010;2023-05-09T01:08:23;99840.80;;;4.78;100.00
23899;BME280;20544;50.018;20.010;2023-05-09T01:11:48;99844.63;;;4.74;100.00
23899;BME280;20544;50.018;20.010;2023-05-09T01:15:11;99835.67;;;4.76;100.00
23899;BME280;20544;50.018;20.010;2023-05-09T01:18:32;99841.27;;;4.72;100.00
23899;BME280;20544;50.018;20.010;2023-05-09T01:21:56;99836.36;;;4.67;100.00
23899;BME280;20544;50.018;20.010;2023-05-09T01:25:51;99842.00;;;4.62;100.00
23899;BME280;20544;50.018;20.010;2023-05-09T01:29:26;99833.52;;;4.59;100.00
23899;BME280;20544;50.018;20.010;2023-05-09T01:32:48;99838.25;;;4.53;100.00
23899;BME280;20544;50.018;20.010;2023-05-09T01:36:11;99833.96;;;4.41;100.00
23899;BME280;20544;50.018;20.010;2023-05-09T01:39:29;99833.81;;;4.31;100.00
23899;BME280;20544;50.018;20.010;2023-05-09T01:42:50;99828.08;;;4.26;100.00
23899;BME280;20544;50.018;20.010;2023-05-09T01:46:09;99835.44;;;4.21;100.00
23899;BME280;20544;50.018;20.010;2023-05-09T01:49:27;99822.70;;;4.28;100.00
23899;BME280;20544;50.018;20.010;2023-05-09T01:52:48;99832.59;;;4.24;100.00
23899;BME280;20544;50.018;20.010;2023-05-09T01:56:07;99823.98;;;4.22;100.00
23899;BME280;20544;50.018;20.010;2023-05-09T01:59:25;99826.38;;;4.14;100.00
23899;BME280;20544;50.018;20.010;2023-05-09T02:02:42;99827.89;;;4.05;100.00
23899;BME280;20544;50.018;20.010;2023-05-09T02:05:59;99820.84;;;4.05;100.00
23899;BME280;20544;50.018;20.010;2023-05-09T02:09:16;99809.52;;;4.05;100.00
23899;BME280;20544;50.018;20.010;2023-05-09T02:12:33;99818.22;;;4.05;100.00
23899;BME280;20544;50.018;20.010;2023-05-09T02:15:50;99815.71;;;4.04;100.00
23899;BME280;20544;50.018;20.010;2023-05-09T02:19:06;99817.84;;;3.99;100.00
23899;BME280;20544;50.018;20.010;2023-05-09T02:22:23;99812.31;;;3.91;100.00
23899;BME280;20544;50.018;20.010;2023-05-09T02:25:40;99816.74;;;3.90;100.00
23899;BME280;20544;50.018;20.010;2023-05-09T02:28:56;99813.05;;;3.93;100.00
23899;BME280;20544;50.018;20.010;2023-05-09T02:32:17;99810.88;;;3.86;100.00
23899;BME280;20544;50.018;20.010;2023-05-09T02:35:36;99813.22;;;3.78;100.00
23899;BME280;20544;50.018;20.010;2023-05-09T02:38:53;99811.21;;;3.82;100.00
23899;BME280;20544;50.018;20.010;2023-05-09T02:42:11;99806.91;;;3.81;100.00
23899;BME280;20544;50.018;20.010;2023-05-09T02:45:30;99807.85;;;3.80;100.00
23899;BME280;20544;50.018;20.010;2023-05-09T02:48:46;99799.61;;;3.73;100.00
23899;BME280;20544;50.018;20.010;2023-05-09T02:52:03;99804.81;;;3.62;100.00
23899;BME280;20544;50.018;20.010;2023-05-09T02:55:20;99807.14;;;3.53;100.00
23899;BME280;20544;50.018;20.010;2023-05-09T02:58:36;99807.88;;;3.55;100.00
23899;BME280;20544;50.018;20.010;2023-05-09T03:01:55;99810.63;;;3.54;100.00
23899;BME280;20544;50.018;20.010;2023-05-09T03:05:11;99812.51;;;3.52;100.00
23899;BME280;20544;50.018;20.010;2023-05-09T03:08:28;99812.45;;;3.40;100.00
23899;BME280;20544;50.018;20.010;2023-05-09T03:11:46;99804.90;;;3.36;100.00
23899;BME280;20544;50.018;20.010;2023-05-09T03:15:03;99812.03;;;3.34;100.00
23899;BME280;20544;50.018;20.010;2023-05-09T03:18:21;99805.16;;;3.20;100.00
23899;BME280;20544;50.018;20.010;2023-05-09T03:21:38;99807.08;;;3.18;100.00
23899;BME280;20544;50.018;20.010;2023-05-09T03:24:54;99810.02;;;3.13;100.00
23899;BME280;20544;50.018;20.010;2023-05-09T03:28:11;99808.95;;;3.16;100.00
23899;BME280;20544;50.018;20.010;2023-05-09T03:31:28;99808.72;;;3.19;100.00
23899;BME280;20544;50.018;20.010;2023-05-09T03:34:45;99816.70;;;3.17;100.00
23899;BME280;20544;50.018;20.010;2023-05-09T03:38:02;99813.77;;;3.22;100.00
23899;BME280;20544;50.018;20.010;2023-05-09T03:41:19;99815.33;;;3.24;100.00
23899;BME280;20544;50.018;20.010;2023-05-09T03:44:36;99817.83;;;3.26;100.00
23899;BME280;20544;50.018;20.010;2023-05-09T03:47:52;99807.58;;;3.23;100.00
23899;BME280;20544;50.018;20.010;2023-05-09T03:51:09;99818.69;;;3.27;100.00
23899;BME280;20544;50.018;20.010;2023-05-09T03:54:26;99812.47;;;3.28;100.00
23899;BME280;20544;50.018;20.010;2023-05-09T03:57:44;99822.13;;;3.27;100.00
23899;BME280;20544;50.018;20.010;2023-05-09T04:01:00;99822.96;;;3.28;100.00
23899;BME280;20544;50.018;20.010;2023-05-09T04:04:18;99818.13;;;3.34;100.00
23899;BME280;20544;50.018;20.010;2023-05-09T04:07:35;99825.06;;;3.35;100.00
23899;BME280;20544;50.018;20.010;2023-05-09T04:10:52;99817.70;;;3.40;100.00
23899;BME280;20544;50.018;20.010;2023-05-09T04:14:09;99815.19;;;3.39;100.00
23899;BME280;20544;50.018;20.010;2023-05-09T04:17:25;99822.50;;;3.47;100.00
23899;BME280;20544;50.018;20.010;2023-05-09T04:20:42;99816.52;;;3.45;100.00
23899;BME280;20544;50.018;20.010;2023-05-09T04:23:59;99815.52;;;3.34;100.00
23899;BME280;20544;50.018;20.010;2023-05-09T04:27:20;99812.71;;;3.49;100.00
23899;BME280;20544;50.018;20.010;2023-05-09T04:30:41;99819.08;;;3.58;100.00
23899;BME280;20544;50.018;20.010;2023-05-09T04:33:59;99821.99;;;3.66;100.00
23899;BME280;20544;50.018;20.010;2023-05-09T04:37:16;99824.86;;;3.63;100.00
23899;BME280;20544;50.018;20.010;2023-05-09T04:40:33;99822.89;;;3.78;100.00
23899;BME280;20544;50.018;20.010;2023-05-09T04:43:50;99811.88;;;3.72;100.00
23899;BME280;20544;50.018;20.010;2023-05-09T04:47:07;99819.16;;;3.69;100.00
23899;BME280;20544;50.018;20.010;2023-05-09T04:50:24;99827.34;;;3.88;100.00
23899;BME280;20544;50.018;20.010;2023-05-09T04:53:42;99825.94;;;3.96;100.00
23899;BME280;20544;50.018;20.010;2023-05-09T04:57:03;99818.43;;;4.02;100.00
23899;BME280;20544;50.018;20.010;2023-05-09T05:00:22;99826.70;;;4.09;100.00
23899;BME280;20544;50.018;20.010;2023-05-09T05:03:39;99810.49;;;4.15;100.00
23899;BME280;20544;50.018;20.010;2023-05-09T05:06:56;99821.23;;;4.24;100.00
23899;BME280;20544;50.018;20.010;2023-05-09T05:10:14;99815.20;;;4.46;100.00
23899;BME280;20544;50.018;20.010;2023-05-09T05:13:32;99823.00;;;4.70;100.00
23899;BME280;20544;50.018;20.010;2023-05-09T05:16:50;99817.97;;;4.67;100.00
23899;BME280;20544;50.018;20.010;2023-05-09T05:20:08;99819.30;;;4.84;100.00
23899;BME280;20544;50.018;20.010;2023-05-09T05:23:25;99819.63;;;5.02;100.00
23899;BME280;20544;50.018;20.010;2023-05-09T05:26:42;99821.55;;;5.23;100.00
23899;BME280;20544;50.018;20.010;2023-05-09T05:29:59;99819.12;;;5.42;100.00
23899;BME280;20544;50.018;20.010;2023-05-09T05:33:15;99818.46;;;5.61;100.00
23899;BME280;20544;50.018;20.010;2023-05-09T05:36:34;99809.28;;;5.88;100.00
23899;BME280;20544;50.018;20.010;2023-05-09T05:39:51;99814.02;;;6.06;100.00
23899;BME280;20544;50.018;20.010;2023-05-09T05:43:09;99813.17;;;6.26;100.00
23899;BME280;20544;50.018;20.010;2023-05-09T05:46:25;99811.90;;;6.42;100.00
23899;BME280;20544;50.018;20.010;2023-05-09T05:49:42;99808.09;;;6.56;100.00
23899;BME280;20544;50.018;20.010;2023-05-09T05:52:59;99796.59;;;6.67;100.00
23899;BME280;20544;50.018;20.010;2023-05-09T05:56:16;99799.86;;;6.80;100.00
23899;BME280;20544;50.018;20.010;2023-05-09T05:59:33;99806.70;;;6.92;100.00
23899;BME280;20544;50.018;20.010;2023-05-09T06:02:49;99816.72;;;6.99;100.00
23899;BME280;20544;50.018;20.010;2023-05-09T06:06:10;99807.20;;;7.17;100.00
23899;BME280;20544;50.018;20.010;2023-05-09T06:09:27;99817.50;;;7.30;100.00
23899;BME280;20544;50.018;20.010;2023-05-09T06:12:43;99817.28;;;7.43;100.00
23899;BME280;20544;50.018;20.010;2023-05-09T06:16:00;99809.38;;;7.53;100.00
23899;BME280;20544;50.018;20.010;2023-05-09T06:19:20;99809.52;;;7.71;100.00
23899;BME280;20544;50.018;20.010;2023-05-09T06:22:37;99807.70;;;7.91;100.00
23899;BME280;20544;50.018;20.010;2023-05-09T06:25:54;99815.07;;;8.07;100.00
23899;BME280;20544;50.018;20.010;2023-05-09T06:29:10;99803.38;;;8.19;100.00
23899;BME280;20544;50.018;20.010;2023-05-09T06:32:27;99803.62;;;8.36;100.00
23899;BME280;20544;50.018;20.010;2023-05-09T06:35:43;99801.54;;;8.49;100.00
23899;BME280;20544;50.018;20.010;2023-05-09T06:39:00;99805.13;;;8.58;100.00
23899;BME280;20544;50.018;20.010;2023-05-09T06:42:17;99800.56;;;8.88;100.00
23899;BME280;20544;50.018;20.010;2023-05-09T06:45:33;99803.52;;;9.13;100.00
23899;BME280;20544;50.018;20.010;2023-05-09T06:48:52;99798.23;;;9.31;100.00
23899;BME280;20544;50.018;20.010;2023-05-09T06:52:12;99802.76;;;9.48;100.00
23899;BME280;20544;50.018;20.010;2023-05-09T06:55:30;99803.52;;;9.59;100.00
23899;BME280;20544;50.018;20.010;2023-05-09T06:58:46;99802.47;;;9.69;100.00
23899;BME280;20544;50.018;20.010;2023-05-09T07:02:03;99801.09;;;9.83;100.00
23899;BME280;20544;50.018;20.010;2023-05-09T07:05:20;99796.09;;;9.80;100.00
23899;BME280;20544;50.018;20.010;2023-05-09T07:08:36;99797.88;;;10.16;100.00
23899;BME280;20544;50.018;20.010;2023-05-09T07:11:52;99801.63;;;10.31;100.00
23899;BME280;20544;50.018;20.010;2023-05-09T07:15:11;99799.79;;;10.50;100.00
23899;BME280;20544;50.018;20.010;2023-05-09T07:18:29;99783.95;;;10.66;100.00
23899;BME280;20544;50.018;20.010;2023-05-09T07:21:45;99777.59;;;10.86;100.00
23899;BME280;20544;50.018;20.010;2023-05-09T07:25:01;99773.80;;;10.96;100.00
23899;BME280;20544;50.018;20.010;2023-05-09T07:28:19;99772.34;;;11.02;100.00
23899;BME280;20544;50.018;20.010;2023-05-09T07:31:35;99796.93;;;11.12;100.00
23899;BME280;20544;50.018;20.010;2023-05-09T07:34:52;99795.47;;;11.26;100.00
23899;BME280;20544;50.018;20.010;2023-05-09T07:38:08;99776.27;;;11.41;100.00
23899;BME280;20544;50.018;20.010;2023-05-09T07:41:24;99786.77;;;11.84;100.00
23899;BME280;20544;50.018;20.010;2023-05-09T07:44:41;99779.00;;;12.07;100.00
23899;BME280;20544;50.018;20.010;2023-05-09T07:47:57;99772.94;;;12.54;100.00
23899;BME280;20544;50.018;20.010;2023-05-09T07:51:13;99764.86;;;13.19;100.00
23899;BME280;20544;50.018;20.010;2023-05-09T07:54:32;99798.80;;;13.25;100.00
23899;BME280;20544;50.018;20.010;2023-05-09T07:57:49;99777.30;;;13.58;100.00
23899;BME280;20544;50.018;20.010;2023-05-09T08:01:06;99772.16;;;13.80;100.00
23899;BME280;20544;50.018;20.010;2023-05-09T08:04:23;99786.02;;;13.98;100.00
23899;BME280;20544;50.018;20.010;2023-05-09T08:07:40;99768.66;;;14.17;100.00
23899;BME280;20544;50.018;20.010;2023-05-09T08:10:57;99764.67;;;14.66;100.00
23899;BME280;20544;50.018;20.010;2023-05-09T08:14:13;99762.91;;;14.88;100.00
23899;BME280;20544;50.018;20.010;2023-05-09T08:17:32;99779.86;;;14.96;100.00
23899;BME280;20544;50.018;20.010;2023-05-09T08:20:49;99758.86;;;14.78;100.00
23899;BME280;20544;50.018;20.010;2023-05-09T08:24:06;99744.41;;;14.42;100.00
23899;BME280;20544;50.018;20.010;2023-05-09T08:27:24;99755.75;;;15.26;100.00
23899;BME280;20544;50.018;20.010;2023-05-09T08:30:43;99736.42;;;15.67;100.00
23899;BME280;20544;50.018;20.010;2023-05-09T08:33:59;99752.73;;;15.94;100.00
23899;BME280;20544;50.018;20.010;2023-05-09T08:37:16;99749.70;;;16.04;100.00
23899;BME280;20544;50.018;20.010;2023-05-09T08:40:35;99746.92;;;15.47;100.00
23899;BME280;20544;50.018;20.010;2023-05-09T08:43:54;99752.91;;;15.92;100.00
23899;BME280;20544;50.018;20.010;2023-05-09T08:47:11;99735.31;;;16.05;100.00
23899;BME280;20544;50.018;20.010;2023-05-09T08:50:32;99754.79;;;16.20;100.00
23899;BME280;20544;50.018;20.010;2023-05-09T08:53:54;99741.84;;;16.24;100.00
23899;BME280;20544;50.018;20.010;2023-05-09T08:57:15;99742.65;;;15.96;100.00
23899;BME280;20544;50.018;20.010;2023-05-09T09:00:52;99732.92;;;16.45;100.00
23899;BME280;20544;50.018;20.010;2023-05-09T09:04:20;99745.73;;;15.93;100.00
23899;BME280;20544;50.018;20.010;2023-05-09T09:07:42;99736.09;;;16.27;100.00
23899;BME280;20544;50.018;20.010;2023-05-09T09:11:14;99726.45;;;16.74;100.00
23899;BME280;20544;50.018;20.010;2023-05-09T09:14:41;99744.56;;;16.72;100.00
23899;BME280;20544;50.018;20.010;2023-05-09T09:18:19;99712.62;;;16.64;100.00
23899;BME280;20544;50.018;20.010;2023-05-09T09:21:50;99710.70;;;16.51;100.00
23899;BME280;20544;50.018;20.010;2023-05-09T09:25:13;99701.95;;;16.36;100.00
23899;BME280;20544;50.018;20.010;2023-05-09T09:28:38;99707.34;;;16.42;100.00
23899;BME280;20544;50.018;20.010;2023-05-09T09:32:19;99707.19;;;16.50;100.00
23899;BME280;20544;50.018;20.010;2023-05-09T09:35:50;99692.98;;;16.50;100.00
23899;BME280;20544;50.018;20.010;2023-05-09T09:39:18;99705.03;;;16.74;100.00
23899;BME280;20544;50.018;20.010;2023-05-09T09:43:13;99700.65;;;16.25;100.00
23899;BME280;20544;50.018;20.010;2023-05-09T09:46:41;99698.47;;;16.35;100.00
23899;BME280;20544;50.018;20.010;2023-05-09T09:50:09;99697.17;;;15.96;100.00
23899;BME280;20544;50.018;20.010;2023-05-09T09:53:31;99699.02;;;16.24;100.00
23899;BME280;20544;50.018;20.010;2023-05-09T09:56:53;99691.58;;;16.19;100.00
23899;BME280;20544;50.018;20.010;2023-05-09T10:00:13;99704.66;;;16.07;100.00
23899;BME280;20544;50.018;20.010;2023-05-09T10:03:38;99686.47;;;15.96;100.00
23899;BME280;20544;50.018;20.010;2023-05-09T10:06:57;99688.73;;;15.71;100.00
23899;BME280;20544;50.018;20.010;2023-05-09T10:10:15;99682.23;;;16.08;100.00
23899;BME280;20544;50.018;20.010;2023-05-09T10:13:32;99690.19;;;15.73;100.00
23899;BME280;20544;50.018;20.010;2023-05-09T10:16:52;99686.52;;;15.31;100.00
23899;BME280;20544;50.018;20.010;2023-05-09T10:20:11;99673.84;;;15.83;100.00
23899;BME280;20544;50.018;20.010;2023-05-09T10:23:31;99676.61;;;15.96;100.00
23899;BME280;20544;50.018;20.010;2023-05-09T10:26:50;99696.89;;;15.84;100.00
23899;BME280;20544;50.018;20.010;2023-05-09T10:30:08;99676.73;;;15.38;100.00
23899;BME280;20544;50.018;20.010;2023-05-09T10:33:33;99674.25;;;15.36;100.00
23899;BME280;20544;50.018;20.010;2023-05-09T10:36:57;99657.89;;;15.03;100.00
23899;BME280;20544;50.018;20.010;2023-05-09T10:40:27;99669.97;;;15.64;100.00
23899;BME280;20544;50.018;20.010;2023-05-09T10:44:00;99675.77;;;15.46;100.00
23899;BME280;20544;50.018;20.010;2023-05-09T10:47:22;99689.94;;;15.68;100.00
23899;BME280;20544;50.018;20.010;2023-05-09T10:50:43;99643.60;;;15.61;100.00
23899;BME280;20544;50.018;20.010;2023-05-09T10:54:00;99638.30;;;15.67;100.00
23899;BME280;20544;50.018;20.010;2023-05-09T10:57:21;99631.55;;;15.72;100.00
23899;BME280;20544;50.018;20.010;2023-05-09T11:00:44;99629.39;;;15.82;100.00
23899;BME280;20544;50.018;20.010;2023-05-09T11:04:09;99633.38;;;15.93;100.00
23899;BME280;20544;50.018;20.010;2023-05-09T11:07:30;99632.46;;;15.57;100.00
23899;BME280;20544;50.018;20.010;2023-05-09T11:10:54;99629.55;;;15.80;100.00
23899;BME280;20544;50.018;20.010;2023-05-09T11:17:45;99643.39;;;15.34;100.00
23899;BME280;20544;50.018;20.010;2023-05-09T11:21:25;99609.14;;;15.44;100.00
23899;BME280;20544;50.018;20.010;2023-05-09T11:25:23;99605.63;;;15.72;100.00
23899;BME280;20544;50.018;20.010;2023-05-09T11:29:10;99591.81;;;15.68;100.00
23899;BME280;20544;50.018;20.010;2023-05-09T11:32:55;99599.84;;;15.97;100.00
23899;BME280;20544;50.018;20.010;2023-05-09T11:36:19;99596.91;;;15.85;100.00
23899;BME280;20544;50.018;20.010;2023-05-09T11:40:00;99596.69;;;15.58;100.00
23899;BME280;20544;50.018;20.010;2023-05-09T11:43:20;99593.80;;;15.31;100.00
23899;BME280;20544;50.018;20.010;2023-05-09T11:46:45;99600.06;;;15.17;100.00
23899;BME280;20544;50.018;20.010;2023-05-09T11:50:20;99578.89;;;15.15;100.00
23899;BME280;20544;50.018;20.010;2023-05-09T11:53:44;99572.33;;;15.18;100.00
23899;BME280;20544;50.018;20.010;2023-05-09T11:57:05;99567.48;;;15.28;100.00
23899;BME280;20544;50.018;20.010;2023-05-09T12:00:30;99555.45;;;15.17;100.00
23899;BME280;20544;50.018;20.010;2023-05-09T12:03:58;99557.59;;;15.29;100.00
23899;BME280;20544;50.018;20.010;2023-05-09T12:07:27;99556.79;;;15.28;100.00
23899;BME280;20544;50.018;20.010;2023-05-09T12:11:08;99568.77;;;15.11;100.00
23899;BME280;20544;50.018;20.010;2023-05-09T12:14:35;99560.83;;;14.96;100.00
23899;BME280;20544;50.018;20.010;2023-05-09T12:18:03;99553.51;;;15.04;100.00
23899;BME280;20544;50.018;20.010;2023-05-09T12:21:25;99551.11;;;14.88;100.00
23899;BME280;20544;50.018;20.010;2023-05-09T12:25:00;99542.72;;;14.69;100.00
23899;BME280;20544;50.018;20.010;2023-05-09T12:28:32;99537.23;;;14.99;100.00
23899;BME280;20544;50.018;20.010;2023-05-09T12:32:33;99523.23;;;14.97;100.00
23899;BME280;20544;50.018;20.010;2023-05-09T12:36:05;99546.75;;;15.09;100.00
23899;BME280;20544;50.018;20.010;2023-05-09T12:39:26;99522.42;;;14.97;100.00
23899;BME280;20544;50.018;20.010;2023-05-09T12:42:45;99530.11;;;15.07;100.00
23899;BME280;20544;50.018;20.010;2023-05-09T12:46:03;99534.32;;;14.94;100.00
23899;BME280;20544;50.018;20.010;2023-05-09T12:49:24;99518.81;;;14.83;100.00
23899;BME280;20544;50.018;20.010;2023-05-09T12:52:48;99517.13;;;15.03;100.00
23899;BME280;20544;50.018;20.010;2023-05-09T12:56:12;99525.27;;;14.95;100.00
23899;BME280;20544;50.018;20.010;2023-05-09T12:59:31;99500.25;;;14.75;100.00
23899;BME280;20544;50.018;20.010;2023-05-09T13:02:48;99502.72;;;14.98;100.00
23899;BME280;20544;50.018;20.010;2023-05-09T13:06:12;99486.73;;;15.04;100.00
23899;BME280;20544;50.018;20.010;2023-05-09T13:09:29;99494.00;;;15.17;100.00
23899;BME280;20544;50.018;20.010;2023-05-09T13:12:48;99497.96;;;15.22;100.00
23899;BME280;20544;50.018;20.010;2023-05-09T13:16:06;99504.45;;;15.12;100.00
23899;BME280;20544;50.018;20.010;2023-05-09T13:19:25;99490.28;;;15.12;100.00
23899;BME280;20544;50.018;20.010;2023-05-09T13:22:45;99482.60;;;15.02;100.00
23899;BME280;20544;50.018;20.010;2023-05-09T13:26:03;99484.02;;;14.98;100.00
23899;BME280;20544;50.018;20.010;2023-05-09T13:29:20;99470.75;;;14.83;100.00
23899;BME280;20544;50.018;20.010;2023-05-09T13:32:40;99478.16;;;14.87;100.00
23899;BME280;20544;50.018;20.010;2023-05-09T13:35:57;99483.38;;;14.96;100.00
23899;BME280;20544;50.018;20.010;2023-05-09T13:39:15;99471.08;;;15.01;100.00
23899;BME280;20544;50.018;20.010;2023-05-09T13:42:32;99468.77;;;14.92;99.99
23899;BME280;20544;50.018;20.010;2023-05-09T13:45:49;99454.64;;;14.98;100.00
23899;BME280;20544;50.018;20.010;2023-05-09T13:49:06;99459.88;;;15.13;100.00
23899;BME280;20544;50.018;20.010;2023-05-09T13:52:23;99458.66;;;15.15;100.00
23899;BME280;20544;50.018;20.010;2023-05-09T13:55:41;99454.81;;;14.96;100.00
23899;BME280;20544;50.018;20.010;2023-05-09T13:59:04;99451.08;;;14.91;100.00
23899;BME280;20544;50.018;20.010;2023-05-09T14:02:21;99446.95;;;14.88;100.00
23899;BME280;20544;50.018;20.010;2023-05-09T14:05:40;99441.86;;;14.93;100.00
23899;BME280;20544;50.018;20.010;2023-05-09T14:08:57;99436.89;;;14.90;100.00
23899;BME280;20544;50.018;20.010;2023-05-09T14:12:15;99445.30;;;14.87;100.00
23899;BME280;20544;50.018;20.010;2023-05-09T14:15:32;99454.13;;;14.87;100.00
23899;BME280;20544;50.018;20.010;2023-05-09T14:18:48;99446.95;;;14.88;100.00
23899;BME280;20544;50.018;20.010;2023-05-09T14:22:07;99435.06;;;14.91;100.00
23899;BME280;20544;50.018;20.010;2023-05-09T14:25:26;99433.09;;;14.78;99.51
23899;BME280;20544;50.018;20.010;2023-05-09T14:28:43;99425.25;;;14.69;99.53
23899;BME280;20544;50.018;20.010;2023-05-09T14:31:59;99429.28;;;14.87;100.00
23899;BME280;20544;50.018;20.010;2023-05-09T14:35:17;99438.61;;;14.98;100.00
23899;BME280;20544;50.018;20.010;2023-05-09T14:38:35;99435.23;;;14.89;100.00
23899;BME280;20544;50.018;20.010;2023-05-09T14:41:55;99438.75;;;14.90;99.60
23899;BME280;20544;50.018;20.010;2023-05-09T14:45:13;99437.05;;;14.82;100.00
23899;BME280;20544;50.018;20.010;2023-05-09T14:48:30;99433.16;;;14.84;99.99
23899;BME280;20544;50.018;20.010;2023-05-09T14:51:46;99423.70;;;14.82;100.00
23899;BME280;20544;50.018;20.010;2023-05-09T14:55:07;99419.57;;;14.79;100.00
23899;BME280;20544;50.018;20.010;2023-05-09T14:58:24;99407.77;;;14.67;100.00
23899;BME280;20544;50.018;20.010;2023-05-09T15:01:42;99407.94;;;14.65;100.00
23899;BME280;20544;50.018;20.010;2023-05-09T15:05:02;99399.42;;;14.77;100.00
23899;BME280;20544;50.018;20.010;2023-05-09T15:08:20;99408.25;;;14.77;100.00
23899;BME280;20544;50.018;20.010;2023-05-09T15:11:37;99399.66;;;14.82;100.00
23899;BME280;20544;50.018;20.010;2023-05-09T15:15:01;99401.13;;;14.84;100.00
23899;BME280;20544;50.018;20.010;2023-05-09T15:18:27;99393.92;;;14.85;100.00
23899;BME280;20544;50.018;20.010;2023-05-09T15:21:44;99389.76;;;14.76;100.00
23899;BME280;20544;50.018;20.010;2023-05-09T15:25:01;99390.78;;;14.75;100.00
23899;BME280;20544;50.018;20.010;2023-05-09T15:28:18;99391.75;;;14.67;100.00
23899;BME280;20544;50.018;20.010;2023-05-09T15:31:36;99379.59;;;14.64;100.00
23899;BME280;20544;50.018;20.010;2023-05-09T15:34:53;99385.30;;;14.61;100.00
23899;BME280;20544;50.018;20.010;2023-05-09T15:38:11;99385.87;;;14.56;100.00
23899;BME280;20544;50.018;20.010;2023-05-09T15:41:27;99363.70;;;14.56;100.00
23899;BME280;20544;50.018;20.010;2023-05-09T15:44:44;99362.05;;;14.55;99.19
23899;BME280;20544;50.018;20.010;2023-05-09T15:48:01;99366.38;;;14.56;98.78
23899;BME280;20544;50.018;20.010;2023-05-09T15:51:17;99355.49;;;14.58;99.03
23899;BME280;20544;50.018;20.010;2023-05-09T15:54:35;99356.14;;;14.60;99.33
23899;BME280;20544;50.018;20.010;2023-05-09T15:57:56;99360.45;;;14.61;100.00
23899;BME280;20544;50.018;20.010;2023-05-09T16:01:13;99356.95;;;14.60;100.00
23899;BME280;20544;50.018;20.010;2023-05-09T16:04:29;99365.36;;;14.57;100.00
23899;BME280;20544;50.018;20.010;2023-05-09T16:07:47;99343.43;;;14.62;100.00
23899;BME280;20544;50.018;20.010;2023-05-09T16:11:05;99351.77;;;14.52;100.00
23899;BME280;20544;50.018;20.010;2023-05-09T16:14:22;99339.24;;;14.52;100.00
23899;BME280;20544;50.018;20.010;2023-05-09T16:17:39;99327.31;;;14.48;100.00
23899;BME280;20544;50.018;20.010;2023-05-09T16:20:56;99318.47;;;14.48;100.00
23899;BME280;20544;50.018;20.010;2023-05-09T16:24:12;99336.29;;;14.40;100.00
23899;BME280;20544;50.018;20.010;2023-05-09T16:27:30;99330.88;;;14.34;100.00
23899;BME280;20544;50.018;20.010;2023-05-09T16:30:47;99317.55;;;14.34;100.00
23899;BME280;20544;50.018;20.010;2023-05-09T16:34:03;99321.55;;;14.23;100.00
23899;BME280;20544;50.018;20.010;2023-05-09T16:37:20;99313.13;;;14.19;100.00
23899;BME280;20544;50.018;20.010;2023-05-09T16:40:39;99313.38;;;14.24;100.00
23899;BME280;20544;50.018;20.010;2023-05-09T16:43:58;99304.48;;;14.17;100.00
23899;BME280;20544;50.018;20.010;2023-05-09T16:47:14;99309.02;;;14.17;100.00
23899;BME280;20544;50.018;20.010;2023-05-09T16:50:31;99304.29;;;14.19;100.00
23899;BME280;20544;50.018;20.010;2023-05-09T16:53:49;99297.90;;;14.13;100.00
23899;BME280;20544;50.018;20.010;2023-05-09T16:57:09;99296.44;;;14.11;100.00
23899;BME280;20544;50.018;20.010;2023-05-09T17:00:26;99298.83;;;14.05;100.00
23899;BME280;20544;50.018;20.010;2023-05-09T17:03:43;99293.50;;;14.05;100.00
23899;BME280;20544;50.018;20.010;2023-05-09T17:07:00;99294.66;;;13.96;100.00
23899;BME280;20544;50.018;20.010;2023-05-09T17:10:17;99297.53;;;13.95;100.00
23899;BME280;20544;50.018;20.010;2023-05-09T17:13:37;99279.88;;;13.94;100.00
23899;BME280;20544;50.018;20.010;2023-05-09T17:16:55;99287.83;;;13.87;100.00
23899;BME280;20544;50.018;20.010;2023-05-09T17:20:14;99276.12;;;13.88;100.00
23899;BME280;20544;50.018;20.010;2023-05-09T17:23:31;99281.41;;;13.81;100.00